Time;durP1;ratioP1;P1;durP2;ratioP2;P2;SDS_P1;SDS_P2;PMS_P1;PMS_P2;Temp;Humidity;BMP_temperature;BMP_pressure;BME280_temperature;BME280_humidity;BME280_pressure;Samples;Min_cycle;Max_cycle;Signal;HPM_P1;HPM_P2
2022/08/25 00:01:50;;;;;;;;;13.00;11.67;;;;;30.13;41.31;50583.56;4994219;28;45454;-75
2022/08/25 00:04:17;;;;;;;;;12.00;12.00;;;;;30.12;41.79;49735.72;4994039;28;45666;-76
2022/08/25 00:06:43;;;;;;;;;11.00;10.33;;;;;30.08;41.62;49228.28;4994014;28;46627;-76
2022/08/25 00:09:11;;;;;;;;;9.00;9.00;;;;;30.13;41.86;48803.31;4993852;28;45537;-76
2022/08/25 00:11:38;;;;;;;;;12.00;10.67;;;;;30.09;41.91;48347.19;4994180;28;45433;-76
2022/08/25 00:14:13;;;;;;;;;15.33;13.00;;;;;30.09;42.00;47777.41;4994373;28;45367;-76
2022/08/25 00:16:40;;;;;;;;;15.33;12.33;;;;;30.04;42.02;47244.31;4993587;28;47059;-75
2022/08/25 00:19:11;;;;;;;;;12.67;10.00;;;;;30.01;42.48;46889.25;4993592;28;45528;-76
2022/08/25 00:21:37;;;;;;;;;10.33;10.33;;;;;29.99;42.50;46510.25;4993827;28;45530;-75
2022/08/25 00:24:03;;;;;;;;;7.67;7.67;;;;;30.02;42.49;45569.13;4993955;28;45394;-76
2022/08/25 00:26:29;;;;;;;;;10.33;9.33;;;;;30.00;42.64;44833.28;4993681;28;47697;-76
2022/08/25 00:28:55;;;;;;;;;11.67;10.33;;;;;29.95;42.91;44370.94;4992811;28;45353;-76
2022/08/25 00:31:22;;;;;;;;;16.00;12.00;;;;;29.84;42.99;43845.66;4993822;28;45476;-76
2022/08/25 00:33:49;;;;;;;;;10.33;10.33;;;;;29.87;42.95;43246.16;4993879;28;45480;-76
2022/08/25 00:36:16;;;;;;;;;11.00;11.00;;;;;29.91;43.06;42918.69;4993392;28;45484;-76
2022/08/25 00:38:43;;;;;;;;;10.33;9.00;;;;;29.88;43.22;42109.69;4993353;28;45400;-75
2022/08/25 00:41:11;;;;;;;;;11.33;10.00;;;;;29.89;43.17;41137.94;4993668;28;45505;-76
2022/08/25 00:43:39;;;;;;;;;12.00;12.00;;;;;29.84;43.40;40438.59;4993749;28;45571;-75
2022/08/25 00:46:05;;;;;;;;;12.33;10.67;;;;;29.82;43.58;39985.16;4993148;28;47464;-75
2022/08/25 00:48:31;;;;;;;;;11.33;10.33;;;;;29.77;43.71;38847.88;4993130;28;45376;-76
2022/08/25 00:50:56;;;;;;;;;8.67;7.67;;;;;29.78;43.72;37871.97;4993561;28;45796;-75
2022/08/25 00:53:22;;;;;;;;;9.33;9.00;;;;;29.76;43.28;37651.56;4993852;28;45531;-76
2022/08/25 00:55:48;;;;;;;;;11.33;10.33;;;;;29.67;43.96;36477.84;4959481;28;47068;-76
2022/08/25 00:58:26;;;;;;;;;9.00;9.00;;;;;29.64;43.87;35510.91;4993308;28;45510;-76
2022/08/25 01:00:54;;;;;;;;;9.00;9.00;;;;;29.56;44.37;33971.28;4993271;28;45589;-76
2022/08/25 01:03:22;;;;;;;;;10.33;10.33;;;;;29.62;44.12;33016.31;4993315;28;45649;-76
2022/08/25 01:05:49;;;;;;;;;9.33;9.33;;;;;29.58;44.38;32149.81;4992836;28;47025;-76
2022/08/25 01:08:19;;;;;;;;;10.00;8.67;;;;;29.60;44.17;32115.59;4992943;28;45599;-76
2022/08/25 01:10:47;;;;;;;;;10.33;10.33;;;;;29.56;44.43;30372.50;4993157;28;45407;-75
2022/08/25 01:13:18;;;;;;;;;11.00;9.67;;;;;29.49;44.76;30490.06;4993222;28;45385;-76
2022/08/25 01:15:46;;;;;;;;;11.33;10.33;;;;;29.47;44.71;29369.28;4992773;28;45651;-75
2022/08/25 01:18:11;;;;;;;;;10.00;8.67;;;;;29.49;44.88;28183.50;4975342;28;45693;-75
2022/08/25 01:20:37;;;;;;;;;12.67;11.33;;;;;29.42;44.98;28385.13;4993153;28;45405;-76
2022/08/25 01:23:03;;;;;;;;;11.00;11.00;;;;;29.44;44.45;27695.81;4993273;28;45344;-76
2022/08/25 01:25:50;;;;;;;;;11.33;9.67;;;;;29.41;44.67;27348.94;4992576;28;46206;-76
2022/08/25 01:28:16;;;;;;;;;9.00;9.00;;;;;29.39;44.93;26658.09;4992438;28;45448;-76
2022/08/25 01:30:41;;;;;;;;;10.00;8.33;;;;;29.35;45.34;25621.28;4992906;28;45352;-81
2022/08/25 01:33:09;;;;;;;;;8.00;8.00;;;;;29.32;44.98;25619.84;4993034;28;45540;-81
2022/08/25 01:35:35;;;;;;;;;12.33;9.00;;;;;29.34;44.99;24586.25;4992723;28;46204;-81
2022/08/25 01:38:03;;;;;;;;;11.67;11.33;;;;;29.30;44.80;24239.63;4992454;28;45394;-81
2022/08/25 01:40:28;;;;;;;;;12.67;9.67;;;;;29.23;45.42;23892.00;4994274;28;45513;-81
2022/08/25 01:42:53;;;;;;;;;10.67;9.67;;;;;29.34;45.46;23207.03;4995921;28;45515;-81
2022/08/25 01:45:20;;;;;;;;;11.00;11.00;;;;;29.28;45.38;23204.44;4995129;28;47201;-81
2022/08/25 01:47:45;;;;;;;;;6.33;6.33;;;;;29.26;45.03;22514.53;4995725;28;45415;-81
2022/08/25 01:50:10;;;;;;;;;15.33;11.67;;;;;29.21;45.36;22857.00;4995599;28;45455;-81
2022/08/25 01:52:46;;;;;;;;;6.67;6.67;;;;;29.23;45.44;22857.88;4962535;28;45828;-81
2022/08/25 01:55:11;;;;;;;;;10.00;10.00;;;;;29.18;45.49;22166.66;4995741;28;45527;-81
2022/08/25 01:57:36;;;;;;;;;11.00;9.67;;;;;29.17;45.58;21477.28;4995474;28;45504;-81
2022/08/25 02:00:05;;;;;;;;;11.67;9.00;;;;;29.19;45.43;21133.88;4977722;28;45492;-81
2022/08/25 02:02:31;;;;;;;;;15.00;10.67;;;;;29.15;45.91;20443.31;4995780;28;45508;-80
2022/08/25 02:04:56;;;;;;;;;11.67;8.67;;;;;29.16;45.79;20788.28;4995639;28;45728;-80
2022/08/25 02:07:22;;;;;;;;;10.00;10.00;;;;;29.13;45.52;20786.91;4995387;28;45417;-80
2022/08/25 02:09:47;;;;;;;;;12.00;10.00;;;;;29.12;45.01;24231.75;4995544;28;45409;-81
2022/08/25 02:12:12;;;;;;;;;13.67;9.67;;;;;29.08;45.04;25953.53;4978460;28;45484;-80
2022/08/25 02:14:38;;;;;;;;;9.00;9.00;;;;;29.03;44.69;27330.41;4995190;28;45574;-80
2022/08/25 02:17:04;;;;;;;;;9.00;9.00;;;;;28.98;43.85;33944.97;4995677;28;45418;-81
2022/08/25 02:19:30;;;;;;;;;12.00;9.00;;;;;28.94;42.74;37914.13;4995457;28;45494;-80
2022/08/25 02:21:56;;;;;;;;;10.33;9.33;;;;;29.07;42.95;39652.47;4995614;28;45526;-81
2022/08/25 02:24:22;;;;;;;;;7.67;5.67;;;;;29.12;42.21;41699.81;4994922;28;46162;-81
2022/08/25 02:26:49;;;;;;;;;9.00;8.00;;;;;28.97;42.29;41997.41;4995018;28;45436;-81
2022/08/25 02:29:15;;;;;;;;;9.33;8.00;;;;;28.99;42.57;42994.59;4995233;28;45555;-80
2022/08/25 02:31:41;;;;;;;;;8.00;8.00;;;;;28.98;42.46;43612.94;4995432;28;45382;-80
2022/08/25 02:34:08;;;;;;;;;10.33;10.00;;;;;28.93;42.09;44207.38;4995128;28;46407;-80
2022/08/25 02:36:36;;;;;;;;;11.00;11.00;;;;;28.92;42.10;44688.22;4994957;28;45387;-81
2022/08/25 02:39:03;;;;;;;;;11.00;9.67;;;;;28.93;41.88;45154.03;4995226;28;45483;-81
2022/08/25 02:41:30;;;;;;;;;9.00;9.00;;;;;28.86;42.02;45479.03;4995310;28;45452;-81
2022/08/25 02:43:55;;;;;;;;;8.00;8.00;;;;;28.90;42.34;45706.47;4994679;28;47376;-80
2022/08/25 02:46:22;;;;;;;;;10.67;8.33;;;;;28.89;42.00;45859.94;4995165;28;45453;-80
2022/08/25 02:48:47;;;;;;;;;8.00;8.00;;;;;28.80;42.12;45993.84;4995019;28;45485;-80
2022/08/25 02:51:14;;;;;;;;;11.67;11.67;;;;;28.83;42.04;46069.72;4994800;28;45441;-80
2022/08/25 02:53:40;;;;;;;;;7.00;7.00;;;;;28.75;41.96;45905.91;4977168;28;46506;-81
2022/08/25 02:56:08;;;;;;;;;8.67;8.67;;;;;28.77;42.16;46132.13;4994655;28;45501;-80
2022/08/25 02:58:34;;;;;;;;;9.33;9.33;;;;;28.79;41.77;46220.75;4994510;28;45752;-80
2022/08/25 03:00:59;;;;;;;;;7.67;7.67;;;;;28.73;42.18;46505.47;4995253;28;45398;-81
2022/08/25 03:03:25;;;;;;;;;10.00;8.00;;;;;28.74;41.90;46698.44;4994790;28;45520;-80
2022/08/25 03:05:50;;;;;;;;;8.33;8.00;;;;;28.64;41.90;47049.78;4994649;28;45537;-81
2022/08/25 03:08:16;;;;;;;;;9.00;9.00;;;;;28.73;41.74;48023.59;4994833;28;45956;-80
2022/08/25 03:10:41;;;;;;;;;8.00;8.00;;;;;28.73;42.20;47750.16;4995193;28;45482;-80
2022/08/25 03:13:07;;;;;;;;;8.33;7.67;;;;;28.67;42.04;47658.94;4994465;28;46101;-81
2022/08/25 03:15:36;;;;;;;;;9.00;9.00;;;;;28.66;41.96;47430.75;4994897;28;45513;-80
2022/08/25 03:18:02;;;;;;;;;7.67;6.33;;;;;28.67;42.16;47734.75;4994858;28;45467;-81
2022/08/25 03:20:28;;;;;;;;;6.00;6.00;;;;;28.64;42.21;47155.34;4995139;28;45411;-81
2022/08/25 03:22:54;;;;;;;;;10.00;8.00;;;;;28.54;42.60;46953.09;4994306;28;46200;-81
2022/08/25 03:28:05;;;;;;;;;8.33;8.00;;;;;28.54;42.08;48211.50;4994378;28;45487;-81
2022/08/25 03:30:30;;;;;;;;;9.33;8.00;;;;;28.52;42.12;48036.59;4995059;28;45428;-76
2022/08/25 03:32:55;;;;;;;;;8.33;8.33;;;;;28.48;41.86;48433.81;4994424;28;46036;-76
2022/08/25 03:35:21;;;;;;;;;9.00;7.00;;;;;28.43;41.74;48616.31;4994467;28;45312;-75
2022/08/25 03:37:47;;;;;;;;;7.33;7.00;;;;;28.42;41.80;48797.22;4994422;28;45444;-76
2022/08/25 03:40:16;;;;;;;;;7.67;7.67;;;;;28.47;42.04;48638.22;4994365;28;45395;-76
2022/08/25 03:42:43;;;;;;;;;7.00;7.00;;;;;28.43;42.09;48397.09;4993910;28;47333;-76
2022/08/25 03:45:12;;;;;;;;;7.00;7.00;;;;;28.45;42.09;48455.19;4994120;28;45500;-75
2022/08/25 03:47:39;;;;;;;;;7.00;7.00;;;;;28.46;42.15;48369.44;4994207;28;45365;-76
2022/08/25 03:50:07;;;;;;;;;10.67;8.67;;;;;28.33;42.03;48380.94;4994714;28;45382;-76
2022/08/25 03:52:33;;;;;;;;;8.00;7.00;;;;;28.31;42.20;48370.72;4994097;28;46120;-76
2022/08/25 03:54:59;;;;;;;;;7.33;7.33;;;;;28.31;42.05;48360.31;4994053;28;45413;-76
2022/08/25 03:57:25;;;;;;;;;8.00;7.00;;;;;28.30;41.98;48437.94;4994132;28;45473;-76
2022/08/25 03:59:51;;;;;;;;;6.33;6.00;;;;;28.35;42.32;48095.81;4994400;28;45374;-76
2022/08/25 04:02:17;;;;;;;;;9.67;8.00;;;;;28.29;42.29;48482.69;4994233;28;46097;-75
2022/08/25 04:04:42;;;;;;;;;9.33;7.33;;;;;28.20;42.59;48326.69;4992695;28;45693;-76
2022/08/25 04:07:07;;;;;;;;;9.00;7.33;;;;;28.24;42.41;48226.84;4993867;28;45549;-76
2022/08/25 04:09:33;;;;;;;;;8.67;7.67;;;;;28.22;42.34;48433.47;4994283;28;45413;-76
2022/08/25 04:11:58;;;;;;;;;7.67;7.67;;;;;28.19;42.88;47817.72;4993943;28;46006;-76
2022/08/25 04:14:24;;;;;;;;;8.33;8.33;;;;;28.22;42.96;47565.13;4976349;28;45390;-76
2022/08/25 04:16:51;;;;;;;;;9.33;9.00;;;;;28.20;42.61;47688.72;4994190;28;45491;-76
2022/08/25 04:19:17;;;;;;;;;9.33;8.00;;;;;28.24;42.35;47707.44;4994362;28;45516;-76
2022/08/25 04:21:42;;;;;;;;;10.00;8.00;;;;;28.19;42.86;47577.00;4993713;28;46989;-76
2022/08/25 04:24:10;;;;;;;;;9.00;9.00;;;;;28.17;42.49;47244.97;4993245;28;45454;-76
2022/08/25 04:26:41;;;;;;;;;6.67;6.00;;;;;28.14;42.44;47510.19;4994020;28;45473;-76
2022/08/25 04:29:08;;;;;;;;;8.67;8.67;;;;;28.13;42.67;47387.69;4994289;28;45442;-75
2022/08/25 04:31:35;;;;;;;;;7.00;7.00;;;;;28.10;42.86;47187.81;4993490;28;47370;-75
2022/08/25 04:34:02;;;;;;;;;9.00;8.00;;;;;28.01;43.02;46878.00;4993485;28;45481;-76
2022/08/25 04:36:28;;;;;;;;;9.00;7.00;;;;;28.01;43.31;46983.44;4993426;28;45732;-76
2022/08/25 04:38:55;;;;;;;;;10.67;7.67;;;;;27.94;43.24;46194.22;4993761;28;45495;-76
2022/08/25 04:41:23;;;;;;;;;9.00;8.00;;;;;27.92;43.50;45644.00;4975718;28;48820;-76
2022/08/25 04:43:48;;;;;;;;;8.00;8.00;;;;;27.86;43.63;44985.38;4993530;28;45512;-76
2022/08/25 04:46:17;;;;;;;;;7.00;6.33;;;;;27.91;43.70;44761.97;4993535;28;45460;-76
2022/08/25 04:48:44;;;;;;;;;7.33;6.00;;;;;27.90;43.52;44963.81;4976141;28;45405;-76
2022/08/25 04:51:13;;;;;;;;;9.33;8.00;;;;;27.86;43.81;44277.63;4993463;28;45388;-76
2022/08/25 04:53:39;;;;;;;;;8.00;7.00;;;;;27.84;43.66;44208.53;4993114;28;45458;-75
2022/08/25 04:56:06;;;;;;;;;9.67;6.67;;;;;27.85;43.92;44546.94;4993401;28;45350;-76
2022/08/25 04:58:32;;;;;;;;;10.67;9.00;;;;;27.81;43.92;44125.16;4993708;28;45421;-76
2022/08/25 05:01:03;;;;;;;;;10.00;8.67;;;;;27.82;43.68;43620.56;4993173;28;45962;-76
2022/08/25 05:03:29;;;;;;;;;10.33;9.00;;;;;27.85;43.90;42793.88;4993053;28;45480;-76
2022/08/25 05:05:55;;;;;;;;;10.67;10.67;;;;;27.75;44.48;41245.91;4975573;28;45405;-76
2022/08/25 05:08:21;;;;;;;;;8.33;8.33;;;;;27.84;44.73;37995.88;4993132;28;45648;-76
2022/08/25 05:10:46;;;;;;;;;13.67;11.67;;;;;27.85;45.67;32692.69;4992789;28;45437;-76
2022/08/25 05:13:11;;;;;;;;;11.67;10.00;;;;;27.82;45.99;27271.34;4993246;28;45452;-76
2022/08/25 05:15:49;;;;;;;;;11.00;11.00;;;;;27.82;46.36;24518.56;4977123;28;45419;-75
2022/08/25 05:18:15;;;;;;;;;12.00;11.00;;;;;27.82;46.20;21767.72;4996403;28;45505;-76
2022/08/25 05:20:41;;;;;;;;;9.33;9.33;;;;;27.79;46.81;20048.44;4995649;28;46389;-75
2022/08/25 05:23:06;;;;;;;;;11.33;10.33;;;;;27.83;46.50;18675.50;4996050;28;45420;-76
2022/08/25 05:25:31;;;;;;;;;10.00;10.00;;;;;27.84;47.24;17302.22;4995854;27;45540;-76
2022/08/25 05:27:57;;;;;;;;;12.00;12.00;;;;;27.71;46.85;16268.44;4996528;28;45371;-76
2022/08/25 05:30:22;;;;;;;;;13.67;11.67;;;;;27.70;47.17;14209.56;4995982;28;47009;-76
2022/08/25 05:32:47;;;;;;;;;13.00;11.67;;;;;27.69;47.51;13523.31;4995772;28;45490;-75
2022/08/25 05:35:14;;;;;;;;;8.33;7.67;;;;;27.76;47.32;13182.16;4995889;28;45519;-76
2022/08/25 05:37:40;;;;;;;;;11.33;10.33;;;;;27.75;47.31;13181.91;4995934;28;45398;-75
2022/08/25 05:40:07;;;;;;;;;12.67;9.67;;;;;27.76;47.42;12153.59;4995500;28;45405;-76
2022/08/25 05:42:33;;;;;;;;;12.00;10.00;;;;;27.73;47.94;11467.22;4995669;28;45441;-75
2022/08/25 05:44:58;;;;;;;;;11.67;9.33;;;;;27.78;47.34;10782.75;4978178;28;45399;-76
2022/08/25 05:47:23;;;;;;;;;12.00;10.33;;;;;27.76;47.51;10782.31;4995655;28;45522;-76
2022/08/25 05:49:49;;;;;;;;;11.00;11.00;;;;;27.77;47.65;11125.41;4995871;28;46161;-76
2022/08/25 05:52:15;;;;;;;;;10.33;10.33;;;;;27.76;48.03;9754.25;4995397;28;45436;-76
2022/08/25 05:54:40;;;;;;;;;12.00;12.00;;;;;27.82;47.33;11126.34;4995687;28;45559;-76
2022/08/25 05:57:06;;;;;;;;;9.00;9.00;;;;;27.85;47.12;11812.75;4996007;28;45444;-76
2022/08/25 05:59:32;;;;;;;;;11.67;11.67;;;;;27.73;47.50;11810.00;4977638;28;47224;-75
2022/08/25 06:04:42;;;;;;;;;9.67;9.67;;;;;27.98;47.31;11130.28;4995670;28;45766;-76
2022/08/25 06:07:08;;;;;;;;;11.00;11.00;;;;;27.99;47.49;11816.34;4995901;28;45441;-76
2022/08/25 06:09:33;;;;;;;;;10.33;10.33;;;;;28.07;47.09;12504.13;4995189;28;45465;-75
2022/08/25 06:11:59;;;;;;;;;14.33;12.33;;;;;28.12;46.86;14564.47;4977562;28;45736;-76
2022/08/25 06:14:24;;;;;;;;;15.33;12.00;;;;;28.14;46.79;13878.72;4978204;28;45513;-76
2022/08/25 06:16:51;;;;;;;;;11.00;10.00;;;;;28.15;46.88;14565.34;4995613;28;45387;-76
2022/08/25 06:19:16;;;;;;;;;11.33;11.33;;;;;28.22;46.54;14567.41;4995276;28;46347;-75
2022/08/25 06:21:42;;;;;;;;;14.67;11.33;;;;;28.27;46.21;14912.06;4977403;28;45615;-76
2022/08/25 06:24:09;;;;;;;;;9.33;9.33;;;;;28.36;45.97;15945.31;4977706;28;45453;-76
2022/08/25 06:26:35;;;;;;;;;9.33;8.67;;;;;28.39;45.29;21446.47;4994515;28;45366;-76
2022/08/25 06:29:01;;;;;;;;;11.33;9.33;;;;;28.48;45.00;23514.84;4984933;28;48165;-82
2022/08/25 06:31:26;;;;;;;;;13.00;11.00;;;;;28.55;44.09;29911.22;5008857;27;45465;-80
2022/08/25 06:33:52;;;;;;;;;9.00;8.33;;;;;28.58;42.84;36309.19;5067906;27;45539;-81
2022/08/25 06:36:18;;;;;;;;;10.00;10.00;;;;;28.61;42.21;36802.34;4994631;27;45603;-81
2022/08/25 06:38:44;;;;;;;;;10.00;10.00;;;;;28.66;42.30;38908.66;5012026;27;46041;-80
2022/08/25 06:41:11;;;;;;;;;11.33;9.00;;;;;28.66;42.04;39548.44;5076914;27;45454;-82
2022/08/25 06:43:39;;;;;;;;;11.00;8.00;;;;;28.76;42.31;38642.72;5033808;27;45638;-82
2022/08/25 06:46:08;;;;;;;;;11.50;11.50;;;;;28.86;41.99;39653.94;5050343;27;45557;-82
2022/08/25 06:48:34;;;;;;;;;11.00;10.33;;;;;29.09;41.82;39970.16;5078908;27;46007;-82
2022/08/25 06:50:59;;;;;;;;;11.67;11.67;;;;;29.12;41.34;41667.34;5028175;27;45540;-82
2022/08/25 06:53:24;;;;;;;;;11.67;8.67;;;;;29.22;41.25;42075.06;5097906;27;45401;-82
2022/08/25 06:55:57;;;;;;;;;11.33;9.67;;;;;29.19;41.03;42281.50;5058508;27;45436;-81
2022/08/25 06:58:23;;;;;;;;;12.67;10.00;;;;;29.31;41.12;42660.78;5072237;27;47238;-81
2022/08/25 07:00:48;;;;;;;;;11.00;10.00;;;;;29.41;40.80;43517.88;5028343;27;45437;-82
2022/08/25 07:03:13;;;;;;;;;11.33;11.33;;;;;29.45;40.42;44249.25;5079154;27;45460;-82
2022/08/25 07:05:39;;;;;;;;;12.33;11.00;;;;;29.52;40.30;44688.03;5047214;27;45487;-81
2022/08/25 07:08:05;;;;;;;;;11.00;11.00;;;;;29.53;40.76;44293.00;5049427;27;45877;-82
2022/08/25 07:10:30;;;;;;;;;11.00;9.67;;;;;29.61;40.43;44887.41;5092764;27;45999;-81
2022/08/25 07:12:56;;;;;;;;;10.67;10.33;;;;;29.64;40.21;44415.31;5028426;27;45438;-82
2022/08/25 07:15:21;;;;;;;;;12.33;11.00;;;;;29.80;40.51;43975.31;5074901;27;45711;-82
2022/08/25 07:17:48;;;;;;;;;14.00;11.33;;;;;29.86;40.05;44825.00;5051750;27;46364;-84
2022/08/25 07:20:14;;;;;;;;;10.00;10.00;;;;;29.93;40.31;44426.28;5025752;28;45528;-82
2022/08/25 07:22:40;;;;;;;;;11.00;11.00;;;;;29.95;39.97;44360.50;5081872;27;45568;-82
2022/08/25 07:25:06;;;;;;;;;10.33;8.33;;;;;29.97;41.12;41203.31;5006291;27;45844;-81
2022/08/25 07:27:31;;;;;;;;;12.33;11.67;;;;;30.06;40.19;44487.91;5041979;27;45600;-82
2022/08/25 07:29:57;;;;;;;;;12.33;10.00;;;;;30.03;40.27;44325.66;5054181;27;45464;-77
2022/08/25 07:32:22;;;;;;;;;10.00;7.33;;;;;30.03;39.70;44930.50;5072218;27;45464;-78
2022/08/25 07:37:31;;;;;;;;;10.00;10.00;;;;;30.30;40.35;42855.22;5043163;27;45879;-78
2022/08/25 07:40:00;;;;;;;;;12.00;12.00;;;;;30.28;41.30;38297.47;5057085;27;45499;-78
2022/08/25 07:42:26;;;;;;;;;16.33;12.33;;;;;30.33;39.70;44766.22;5035174;27;45448;-78
2022/08/25 07:44:52;;;;;;;;;12.00;11.33;;;;;30.43;39.55;44616.34;5013924;28;45474;-78
2022/08/25 07:47:18;;;;;;;;;12.33;11.00;;;;;30.42;39.43;45842.06;5013785;28;46258;-77
2022/08/25 07:49:43;;;;;;;;;13.67;9.33;;;;;30.44;40.09;43402.59;4996118;28;45446;-77
2022/08/25 07:52:09;;;;;;;;;13.00;10.33;;;;;30.57;38.68;46811.75;5013996;28;45472;-79
2022/08/25 07:54:35;;;;;;;;;16.33;13.33;;;;;30.59;39.33;45784.75;5014536;28;45819;-78
2022/08/25 07:57:02;;;;;;;;;12.33;10.67;;;;;30.66;39.49;45738.78;5013821;28;46350;-79
2022/08/25 07:59:28;;;;;;;;;12.00;9.00;;;;;30.75;39.25;44624.31;5013755;28;45471;-79
2022/08/25 08:01:53;;;;;;;;;12.00;10.33;;;;;30.89;38.66;46522.50;5013593;28;45580;-78
2022/08/25 08:04:18;;;;;;;;;12.00;12.00;;;;;31.05;39.31;43127.31;5014511;28;45824;-78
2022/08/25 08:06:44;;;;;;;;;12.67;11.33;;;;;31.22;39.92;41403.22;5013460;28;46014;-78
2022/08/25 08:09:11;;;;;;;;;13.67;10.33;;;;;31.43;41.21;34416.03;5013554;28;45482;-79
2022/08/25 08:11:39;;;;;;;;;11.00;11.00;;;;;31.43;39.06;41304.16;5013926;28;45402;-79
2022/08/25 08:14:05;;;;;;;;;10.33;7.33;;;;;31.66;36.41;49180.38;5014002;28;45541;-79
2022/08/25 08:16:31;;;;;;;;;9.67;8.33;;;;;31.65;37.72;47166.81;5013292;28;46176;-78
2022/08/25 08:18:57;;;;;;;;;10.33;10.00;;;;;31.82;37.93;46114.31;4995629;28;45394;-78
2022/08/25 08:21:32;;;;;;;;;14.33;11.00;;;;;31.84;39.31;41895.13;5013903;28;45440;-78
2022/08/25 08:23:59;;;;;;;;;10.67;10.00;;;;;31.79;39.07;41429.75;5010822;27;45504;-79
2022/08/25 08:26:25;;;;;;;;;12.67;10.33;;;;;31.88;40.35;37399.69;4993640;28;45588;-79
2022/08/25 08:28:51;;;;;;;;;12.00;11.00;;;;;31.88;40.35;36409.06;4993922;28;45324;-81
2022/08/25 08:31:19;;;;;;;;;11.00;10.67;;;;;31.90;39.58;38242.28;4993654;28;45300;-82
2022/08/25 08:33:46;;;;;;;;;15.33;11.67;;;;;31.89;38.96;41211.97;4994029;28;45416;-82
2022/08/25 08:36:12;;;;;;;;;16.00;11.00;;;;;32.06;41.15;31447.25;4993349;28;45751;-82
2022/08/25 08:38:39;;;;;;;;;10.33;10.33;;;;;32.26;41.48;28778.06;4993545;28;45504;-84
2022/08/25 08:44:37;;;;;;;;;10.33;9.67;;;;;34.96;36.07;36549.50;4994004;28;45461;-82
2022/08/25 08:47:32;;;;;;;;;10.00;9.67;;;;;36.55;34.80;35522.31;4992915;28;46432;-80
2022/08/25 08:50:05;;;;;;;;;9.67;8.33;;;;;36.67;32.84;41986.09;4992482;28;45526;-79
2022/08/25 08:52:45;;;;;;;;;10.67;10.00;;;;;35.62;34.35;41779.88;4993710;28;45390;-80
2022/08/25 08:55:37;;;;;;;;;10.67;8.67;;;;;35.26;34.83;43666.31;4993705;28;45834;-81
2022/08/25 08:58:08;;;;;;;;;11.33;11.33;;;;;36.41;34.34;38606.66;4993134;28;46203;-81
2022/08/25 09:00:43;;;;;;;;;10.00;10.00;;;;;38.29;32.54;36648.41;4993116;28;45403;-80
2022/08/25 09:03:15;;;;;;;;;9.33;8.33;;;;;39.98;28.22;41209.47;4993438;28;45374;-81
2022/08/25 09:05:50;;;;;;;;;8.67;8.67;;;;;41.20;27.73;39237.34;4993482;28;45450;-81
2022/08/25 09:08:17;;;;;;;;;11.33;10.33;;;;;42.10;28.33;35223.34;4992975;28;46897;-81
2022/08/25 09:10:54;;;;;;;;;9.67;9.67;;;;;42.71;24.95;40543.13;4993053;28;45572;-81
2022/08/25 09:13:33;;;;;;;;;9.33;9.33;;;;;43.03;26.10;37247.97;4993095;28;45389;-81
2022/08/25 09:19:23;;;;;;;;;10.33;10.33;;;;;43.97;24.37;37172.97;4992700;28;45393;-81
2022/08/25 09:21:51;;;;;;;;;10.67;10.67;;;;;44.35;24.77;35316.50;4992956;28;45472;-82
2022/08/25 09:24:27;;;;;;;;;6.67;6.67;;;;;44.76;23.55;36334.97;4992879;28;45535;-83
2022/08/25 09:27:17;;;;;;;;;10.00;10.00;;;;;45.24;23.46;34603.75;4993264;28;45446;-82
2022/08/25 09:30:09;;;;;;;;;11.67;8.67;;;;;45.58;22.52;36172.66;4992888;28;46305;-79
2022/08/25 09:32:41;;;;;;;;;10.00;8.33;;;;;45.89;22.54;34401.97;4993003;28;45407;-79
2022/08/25 09:35:14;;;;;;;;;8.00;8.00;;;;;46.27;23.45;32703.09;4992894;28;45393;-79
2022/08/25 09:37:40;;;;;;;;;9.00;9.00;;;;;46.46;22.14;33590.03;4993090;28;45527;-79
2022/08/25 09:40:06;;;;;;;;;8.00;7.00;;;;;46.43;22.62;34364.72;4992698;28;46219;-79
2022/08/25 09:42:50;;;;;;;;;7.67;7.67;;;;;46.28;23.55;33507.22;4975173;28;45670;-76
2022/08/25 09:45:31;;;;;;;;;7.67;7.67;;;;;46.42;22.90;34469.19;4992455;28;45457;-77
2022/08/25 09:47:57;;;;;;;;;8.67;8.67;;;;;46.36;21.63;36132.50;4992778;28;45521;-79
2022/08/25 09:50:22;;;;;;;;;8.33;8.33;;;;;46.46;21.46;36111.13;4974891;28;46263;-78
2022/08/25 09:52:48;;;;;;;;;7.00;7.00;;;;;46.62;22.35;35477.16;4992498;28;45500;-78
2022/08/25 09:55:13;;;;;;;;;7.00;7.00;;;;;46.68;22.23;36188.69;4992757;28;45521;-80
2022/08/25 09:57:42;;;;;;;;;8.00;7.00;;;;;46.63;21.84;36427.28;4992510;28;45420;-78
2022/08/25 10:00:32;;;;;;;;;6.00;6.00;;;;;46.56;21.44;37538.31;4992223;28;46224;-78
2022/08/25 10:03:11;;;;;;;;;9.00;8.00;;;;;46.53;21.39;38350.09;4994282;28;45430;-75
2022/08/25 10:05:56;;;;;;;;;8.67;8.67;;;;;46.42;22.36;38306.94;4995594;28;45377;-76
2022/08/25 10:08:30;;;;;;;;;8.33;8.33;;;;;46.42;21.85;38465.19;4995486;28;45603;-76
2022/08/25 10:10:57;;;;;;;;;6.67;6.67;;;;;46.20;21.73;40188.00;4995415;28;46130;-78
2022/08/25 10:13:51;;;;;;;;;8.00;8.00;;;;;46.13;21.92;39841.97;4995147;28;45500;-78
2022/08/25 10:16:27;;;;;;;;;8.00;8.00;;;;;46.07;22.18;40376.31;4977485;28;45394;-79
2022/08/25 10:19:01;;;;;;;;;9.33;8.33;;;;;45.95;21.98;40523.25;4995620;28;45489;-79
2022/08/25 10:21:26;;;;;;;;;6.33;6.33;;;;;45.84;22.33;41812.41;4995134;28;48289;-78
2022/08/25 10:23:54;;;;;;;;;8.33;6.67;;;;;45.80;21.24;43019.59;4994873;27;46674;-78
2022/08/25 10:26:53;;;;;;;;;9.00;7.00;;;;;45.60;21.85;43390.88;4995506;28;45394;-76
2022/08/25 10:29:43;;;;;;;;;6.33;6.33;;;;;45.41;23.06;42980.06;4995614;28;45480;-76
2022/08/25 10:32:31;;;;;;;;;7.67;7.00;;;;;45.29;23.49;43282.59;4994942;28;45576;-76
2022/08/25 10:35:03;;;;;;;;;5.67;5.67;;;;;45.19;22.65;44282.28;4995229;28;45462;-76
2022/08/25 10:37:29;;;;;;;;;8.33;8.33;;;;;45.02;23.44;43961.28;4974062;28;45541;-75
2022/08/25 10:40:01;;;;;;;;;5.00;5.00;;;;;44.69;23.91;45303.63;4975755;28;45438;-75
2022/08/25 10:42:28;;;;;;;;;6.67;6.67;;;;;44.43;23.87;46077.00;4974981;28;46536;-75
2022/08/25 10:47:59;;;;;;;;;5.67;5.67;;;;;43.55;23.80;49213.69;4975370;28;45464;-78
2022/08/25 10:50:37;;;;;;;;;7.00;7.00;;;;;43.12;23.78;50602.31;4975740;28;45380;-75
2022/08/25 10:53:20;;;;;;;;;9.00;6.67;;;;;42.75;23.85;51703.66;4975230;28;45481;-75
2022/08/25 10:56:11;;;;;;;;;7.00;7.00;;;;;42.52;24.05;52073.63;4975144;28;45863;-75
2022/08/25 10:58:47;;;;;;;;;7.67;7.67;;;;;42.24;24.08;53098.16;4975356;28;45383;-73
2022/08/25 11:01:33;;;;;;;;;4.33;4.33;;;;;42.03;24.20;53437.00;4975722;28;45399;-77
2022/08/25 11:04:06;;;;;;;;;5.33;5.00;;;;;41.86;24.37;53842.00;4975047;28;46477;-77
2022/08/25 11:06:49;;;;;;;;;5.67;5.67;;;;;41.65;24.72;54313.25;4974683;28;45501;-77
2022/08/25 11:09:23;;;;;;;;;6.00;6.00;;;;;41.38;24.84;54855.56;4975276;28;45505;-75
2022/08/25 11:11:56;;;;;;;;;7.00;7.00;;;;;41.39;24.55;54936.72;4975522;28;45454;-75
2022/08/25 11:14:28;;;;;;;;;5.67;5.67;;;;;41.35;24.72;55234.47;4974637;28;47133;-76
2022/08/25 11:17:09;;;;;;;;;6.00;6.00;;;;;41.07;24.84;55684.03;4974987;28;45479;-74
2022/08/25 11:19:46;;;;;;;;;7.67;5.67;;;;;41.09;25.08;55562.00;5067462;27;46033;-73
2022/08/25 11:22:43;;;;;;;;;6.33;6.33;;;;;40.98;25.29;55805.44;5036831;27;45531;-74
2022/08/25 11:25:33;;;;;;;;;6.00;6.00;;;;;40.77;25.17;56098.66;5017384;27;46299;-73
2022/08/25 11:28:11;;;;;;;;;6.33;6.00;;;;;40.67;25.25;56274.22;5082501;27;45443;-73
2022/08/25 11:30:37;;;;;;;;;7.00;6.00;;;;;40.66;25.29;56336.84;5032793;27;45524;-73
2022/08/25 11:33:04;;;;;;;;;6.33;6.33;;;;;40.56;24.77;56416.13;5046179;27;45351;-73
2022/08/25 11:35:36;;;;;;;;;6.00;6.00;;;;;40.51;25.10;56718.03;5080607;27;46487;-73
2022/08/25 11:38:43;;;;;;;;;6.00;6.00;;;;;40.35;25.62;56758.25;4993443;28;45423;-73
2022/08/25 11:41:20;;;;;;;;;7.00;6.33;;;;;40.32;25.59;56827.19;5070648;27;45492;-73
2022/08/25 11:44:15;;;;;;;;;6.67;6.67;;;;;40.42;25.61;56703.78;5028372;27;45381;-73
2022/08/25 11:46:58;;;;;;;;;6.33;6.33;;;;;40.34;25.91;56729.16;5058032;27;45547;-74
2022/08/25 11:49:49;;;;;;;;;7.00;7.00;;;;;40.47;25.60;56565.41;5076703;27;45618;-74
2022/08/25 11:52:30;;;;;;;;;7.00;6.00;;;;;40.35;25.95;56700.22;4970230;28;45519;-74
2022/08/25 11:55:06;;;;;;;;;6.00;6.00;;;;;40.41;25.60;56623.13;5013650;28;45425;-74